sensor_id;sensor_type;location;lat;lon;timestamp;P1;durP1;ratioP1;P2;durP2;ratioP2
36799;SDS011;22752;51.960;5.886;2023-08-06T00:00:22;4.75;;;3.92;;
36799;SDS011;22752;51.960;5.886;2023-08-06T00:02:48;5.40;;;4.10;;
36799;SDS011;22752;51.960;5.886;2023-08-06T00:05:14;8.13;;;5.38;;
36799;SDS011;22752;51.960;5.886;2023-08-06T00:07:45;9.55;;;6.32;;
36799;SDS011;22752;51.960;5.886;2023-08-06T00:10:14;7.53;;;5.90;;
36799;SDS011;22752;51.960;5.886;2023-08-06T00:12:40;6.20;;;5.38;;
36799;SDS011;22752;51.960;5.886;2023-08-06T00:15:06;7.13;;;6.00;;
36799;SDS011;22752;51.960;5.886;2023-08-06T00:17:33;7.88;;;6.40;;
36799;SDS011;22752;51.960;5.886;2023-08-06T00:19:59;9.57;;;7.10;;
36799;SDS011;22752;51.960;5.886;2023-08-06T00:22:30;8.52;;;6.30;;
36799;SDS011;22752;51.960;5.886;2023-08-06T00:24:56;8.95;;;6.60;;
36799;SDS011;22752;51.960;5.886;2023-08-06T00:27:22;8.85;;;6.50;;
36799;SDS011;22752;51.960;5.886;2023-08-06T00:29:48;8.65;;;6.53;;
36799;SDS011;22752;51.960;5.886;2023-08-06T00:32:14;7.80;;;6.45;;
36799;SDS011;22752;51.960;5.886;2023-08-06T00:34:40;8.77;;;6.88;;
36799;SDS011;22752;51.960;5.886;2023-08-06T00:37:05;7.90;;;6.70;;
36799;SDS011;22752;51.960;5.886;2023-08-06T00:39:31;8.30;;;7.25;;
36799;SDS011;22752;51.960;5.886;2023-08-06T00:41:57;8.00;;;7.13;;
36799;SDS011;22752;51.960;5.886;2023-08-06T00:44:23;7.85;;;7.05;;
36799;SDS011;22752;51.960;5.886;2023-08-06T00:46:49;12.63;;;9.38;;
36799;SDS011;22752;51.960;5.886;2023-08-06T00:49:15;9.77;;;8.02;;
36799;SDS011;22752;51.960;5.886;2023-08-06T00:51:40;11.02;;;8.30;;
36799;SDS011;22752;51.960;5.886;2023-08-06T00:54:08;13.23;;;9.45;;
36799;SDS011;22752;51.960;5.886;2023-08-06T00:56:34;11.15;;;8.82;;
36799;SDS011;22752;51.960;5.886;2023-08-06T00:59:01;9.32;;;7.50;;
36799;SDS011;22752;51.960;5.886;2023-08-06T01:01:29;10.32;;;7.43;;
36799;SDS011;22752;51.960;5.886;2023-08-06T01:03:54;15.65;;;10.70;;
36799;SDS011;22752;51.960;5.886;2023-08-06T01:06:23;12.70;;;8.50;;
36799;SDS011;22752;51.960;5.886;2023-08-06T01:09:10;19.63;;;10.20;;
36799;SDS011;22752;51.960;5.886;2023-08-06T01:12:01;12.27;;;9.18;;
36799;SDS011;22752;51.960;5.886;2023-08-06T01:14:37;13.13;;;9.13;;
36799;SDS011;22752;51.960;5.886;2023-08-06T01:17:17;9.07;;;7.93;;
36799;SDS011;22752;51.960;5.886;2023-08-06T01:19:43;7.88;;;6.60;;
36799;SDS011;22752;51.960;5.886;2023-08-06T01:22:08;7.75;;;6.68;;
36799;SDS011;22752;51.960;5.886;2023-08-06T01:24:34;9.02;;;6.35;;
36799;SDS011;22752;51.960;5.886;2023-08-06T01:27:04;10.00;;;6.68;;
36799;SDS011;22752;51.960;5.886;2023-08-06T01:29:41;8.75;;;6.63;;
36799;SDS011;22752;51.960;5.886;2023-08-06T01:32:12;8.60;;;6.70;;
36799;SDS011;22752;51.960;5.886;2023-08-06T01:34:40;7.32;;;6.38;;
36799;SDS011;22752;51.960;5.886;2023-08-06T01:37:08;9.52;;;7.07;;
36799;SDS011;22752;51.960;5.886;2023-08-06T01:39:35;11.48;;;7.00;;
36799;SDS011;22752;51.960;5.886;2023-08-06T01:42:01;10.23;;;8.32;;
36799;SDS011;22752;51.960;5.886;2023-08-06T01:44:26;10.98;;;8.07;;
36799;SDS011;22752;51.960;5.886;2023-08-06T01:46:52;10.77;;;8.60;;
36799;SDS011;22752;51.960;5.886;2023-08-06T01:49:18;10.38;;;8.30;;
36799;SDS011;22752;51.960;5.886;2023-08-06T01:51:44;11.45;;;9.57;;
36799;SDS011;22752;51.960;5.886;2023-08-06T01:54:09;11.95;;;9.50;;
36799;SDS011;22752;51.960;5.886;2023-08-06T01:56:35;13.18;;;10.55;;
36799;SDS011;22752;51.960;5.886;2023-08-06T01:59:00;13.38;;;11.43;;
36799;SDS011;22752;51.960;5.886;2023-08-06T02:01:26;15.45;;;13.25;;
36799;SDS011;22752;51.960;5.886;2023-08-06T02:03:52;14.88;;;12.20;;
36799;SDS011;22752;51.960;5.886;2023-08-06T02:06:17;12.60;;;10.48;;
36799;SDS011;22752;51.960;5.886;2023-08-06T02:08:43;13.40;;;11.25;;
36799;SDS011;22752;51.960;5.886;2023-08-06T02:11:09;14.60;;;12.00;;
36799;SDS011;22752;51.960;5.886;2023-08-06T02:13:34;15.13;;;13.20;;
36799;SDS011;22752;51.960;5.886;2023-08-06T02:16:00;14.80;;;12.75;;
36799;SDS011;22752;51.960;5.886;2023-08-06T02:18:25;18.40;;;14.63;;
36799;SDS011;22752;51.960;5.886;2023-08-06T02:20:55;15.63;;;12.90;;
36799;SDS011;22752;51.960;5.886;2023-08-06T02:23:22;20.10;;;13.55;;
36799;SDS011;22752;51.960;5.886;2023-08-06T02:25:48;18.15;;;14.05;;
36799;SDS011;22752;51.960;5.886;2023-08-06T02:28:13;19.83;;;15.10;;
36799;SDS011;22752;51.960;5.886;2023-08-06T02:30:39;20.75;;;14.95;;
36799;SDS011;22752;51.960;5.886;2023-08-06T02:33:14;24.27;;;15.80;;
36799;SDS011;22752;51.960;5.886;2023-08-06T02:35:39;20.15;;;15.13;;
36799;SDS011;22752;51.960;5.886;2023-08-06T02:38:05;19.73;;;15.40;;
36799;SDS011;22752;51.960;5.886;2023-08-06T02:40:30;23.25;;;15.95;;
36799;SDS011;22752;51.960;5.886;2023-08-06T02:42:56;19.98;;;14.70;;
36799;SDS011;22752;51.960;5.886;2023-08-06T02:45:22;21.58;;;15.25;;
36799;SDS011;22752;51.960;5.886;2023-08-06T02:47:47;22.42;;;15.50;;
36799;SDS011;22752;51.960;5.886;2023-08-06T02:50:13;19.15;;;16.50;;
36799;SDS011;22752;51.960;5.886;2023-08-06T02:52:39;19.67;;;15.85;;
36799;SDS011;22752;51.960;5.886;2023-08-06T02:55:05;19.77;;;15.98;;
36799;SDS011;22752;51.960;5.886;2023-08-06T02:57:31;18.60;;;16.45;;
36799;SDS011;22752;51.960;5.886;2023-08-06T02:59:57;19.13;;;14.57;;
36799;SDS011;22752;51.960;5.886;2023-08-06T03:02:22;17.60;;;13.82;;
36799;SDS011;22752;51.960;5.886;2023-08-06T03:04:48;17.23;;;13.55;;
36799;SDS011;22752;51.960;5.886;2023-08-06T03:07:14;14.90;;;13.35;;
36799;SDS011;22752;51.960;5.886;2023-08-06T03:09:39;16.83;;;12.73;;
36799;SDS011;22752;51.960;5.886;2023-08-06T03:12:05;19.02;;;15.95;;
36799;SDS011;22752;51.960;5.886;2023-08-06T03:14:31;18.77;;;12.80;;
36799;SDS011;22752;51.960;5.886;2023-08-06T03:16:57;19.35;;;15.02;;
36799;SDS011;22752;51.960;5.886;2023-08-06T03:19:22;19.20;;;13.70;;
36799;SDS011;22752;51.960;5.886;2023-08-06T03:21:48;14.35;;;11.93;;
36799;SDS011;22752;51.960;5.886;2023-08-06T03:24:14;13.15;;;11.68;;
36799;SDS011;22752;51.960;5.886;2023-08-06T03:26:39;14.50;;;12.20;;
36799;SDS011;22752;51.960;5.886;2023-08-06T03:29:05;13.57;;;11.65;;
36799;SDS011;22752;51.960;5.886;2023-08-06T03:31:30;18.88;;;15.77;;
36799;SDS011;22752;51.960;5.886;2023-08-06T03:33:56;19.60;;;14.38;;
36799;SDS011;22752;51.960;5.886;2023-08-06T03:36:22;19.40;;;14.68;;
36799;SDS011;22752;51.960;5.886;2023-08-06T03:38:48;19.67;;;15.45;;
36799;SDS011;22752;51.960;5.886;2023-08-06T03:41:14;14.95;;;13.35;;
36799;SDS011;22752;51.960;5.886;2023-08-06T03:43:40;14.77;;;12.20;;
36799;SDS011;22752;51.960;5.886;2023-08-06T03:46:05;15.63;;;12.27;;
36799;SDS011;22752;51.960;5.886;2023-08-06T03:48:31;15.60;;;12.50;;
36799;SDS011;22752;51.960;5.886;2023-08-06T03:50:56;17.67;;;14.00;;
36799;SDS011;22752;51.960;5.886;2023-08-06T03:53:22;18.95;;;13.60;;
36799;SDS011;22752;51.960;5.886;2023-08-06T03:55:48;15.88;;;12.25;;
36799;SDS011;22752;51.960;5.886;2023-08-06T03:58:13;13.52;;;11.75;;
36799;SDS011;22752;51.960;5.886;2023-08-06T04:00:39;16.23;;;12.68;;
36799;SDS011;22752;51.960;5.886;2023-08-06T04:03:04;16.38;;;13.55;;
36799;SDS011;22752;51.960;5.886;2023-08-06T04:05:33;15.63;;;13.68;;
36799;SDS011;22752;51.960;5.886;2023-08-06T04:07:59;16.23;;;12.18;;
36799;SDS011;22752;51.960;5.886;2023-08-06T04:10:25;16.33;;;12.80;;
36799;SDS011;22752;51.960;5.886;2023-08-06T04:12:50;17.48;;;14.43;;
36799;SDS011;22752;51.960;5.886;2023-08-06T04:15:16;16.92;;;12.50;;
36799;SDS011;22752;51.960;5.886;2023-08-06T04:17:42;17.02;;;12.75;;
36799;SDS011;22752;51.960;5.886;2023-08-06T04:20:07;19.48;;;15.70;;
36799;SDS011;22752;51.960;5.886;2023-08-06T04:22:33;20.05;;;14.32;;
36799;SDS011;22752;51.960;5.886;2023-08-06T04:24:59;14.65;;;12.75;;
36799;SDS011;22752;51.960;5.886;2023-08-06T04:27:24;16.85;;;13.23;;
36799;SDS011;22752;51.960;5.886;2023-08-06T04:29:50;19.58;;;13.35;;
36799;SDS011;22752;51.960;5.886;2023-08-06T04:32:16;19.55;;;14.57;;
36799;SDS011;22752;51.960;5.886;2023-08-06T04:34:44;17.38;;;13.23;;
36799;SDS011;22752;51.960;5.886;2023-08-06T04:37:09;12.10;;;10.80;;
36799;SDS011;22752;51.960;5.886;2023-08-06T04:39:35;16.90;;;14.13;;
36799;SDS011;22752;51.960;5.886;2023-08-06T04:42:01;14.80;;;13.02;;
36799;SDS011;22752;51.960;5.886;2023-08-06T04:44:26;18.17;;;13.50;;
36799;SDS011;22752;51.960;5.886;2023-08-06T04:46:52;13.85;;;10.80;;
36799;SDS011;22752;51.960;5.886;2023-08-06T04:49:20;16.02;;;12.13;;
36799;SDS011;22752;51.960;5.886;2023-08-06T04:51:46;18.88;;;14.15;;
36799;SDS011;22752;51.960;5.886;2023-08-06T04:54:12;19.13;;;15.05;;
36799;SDS011;22752;51.960;5.886;2023-08-06T04:56:38;21.25;;;16.05;;
36799;SDS011;22752;51.960;5.886;2023-08-06T04:59:03;14.63;;;12.48;;
36799;SDS011;22752;51.960;5.886;2023-08-06T05:01:29;17.95;;;13.60;;
36799;SDS011;22752;51.960;5.886;2023-08-06T05:03:55;19.58;;;14.70;;
36799;SDS011;22752;51.960;5.886;2023-08-06T05:06:20;17.10;;;14.02;;
36799;SDS011;22752;51.960;5.886;2023-08-06T05:08:46;14.63;;;12.88;;
36799;SDS011;22752;51.960;5.886;2023-08-06T05:11:11;14.50;;;11.80;;
36799;SDS011;22752;51.960;5.886;2023-08-06T05:13:37;22.10;;;14.60;;
36799;SDS011;22752;51.960;5.886;2023-08-06T05:16:03;20.58;;;14.02;;
36799;SDS011;22752;51.960;5.886;2023-08-06T05:18:28;14.55;;;11.88;;
36799;SDS011;22752;51.960;5.886;2023-08-06T05:20:55;14.45;;;12.23;;
36799;SDS011;22752;51.960;5.886;2023-08-06T05:23:21;19.60;;;14.73;;
36799;SDS011;22752;51.960;5.886;2023-08-06T05:25:46;16.98;;;14.80;;
36799;SDS011;22752;51.960;5.886;2023-08-06T05:28:12;20.02;;;15.05;;
36799;SDS011;22752;51.960;5.886;2023-08-06T05:30:41;16.40;;;14.57;;
36799;SDS011;22752;51.960;5.886;2023-08-06T05:33:06;17.33;;;13.93;;
36799;SDS011;22752;51.960;5.886;2023-08-06T05:35:32;16.67;;;14.48;;
36799;SDS011;22752;51.960;5.886;2023-08-06T05:37:58;19.02;;;14.23;;
36799;SDS011;22752;51.960;5.886;2023-08-06T05:40:23;17.00;;;13.65;;
36799;SDS011;22752;51.960;5.886;2023-08-06T05:42:50;20.58;;;15.43;;
36799;SDS011;22752;51.960;5.886;2023-08-06T05:45:17;21.75;;;16.02;;
36799;SDS011;22752;51.960;5.886;2023-08-06T05:47:43;22.38;;;16.35;;
36799;SDS011;22752;51.960;5.886;2023-08-06T05:50:09;17.80;;;15.60;;
36799;SDS011;22752;51.960;5.886;2023-08-06T05:52:35;18.40;;;16.42;;
36799;SDS011;22752;51.960;5.886;2023-08-06T05:55:00;20.60;;;17.33;;
36799;SDS011;22752;51.960;5.886;2023-08-06T05:57:26;20.23;;;16.38;;
36799;SDS011;22752;51.960;5.886;2023-08-06T05:59:51;24.23;;;18.50;;
36799;SDS011;22752;51.960;5.886;2023-08-06T06:02:17;21.48;;;17.33;;
36799;SDS011;22752;51.960;5.886;2023-08-06T06:04:43;16.92;;;15.13;;
36799;SDS011;22752;51.960;5.886;2023-08-06T06:07:09;18.08;;;14.43;;
36799;SDS011;22752;51.960;5.886;2023-08-06T06:09:35;17.65;;;15.75;;
36799;SDS011;22752;51.960;5.886;2023-08-06T06:12:00;22.52;;;17.30;;
36799;SDS011;22752;51.960;5.886;2023-08-06T06:14:26;19.10;;;17.05;;
36799;SDS011;22752;51.960;5.886;2023-08-06T06:16:52;22.60;;;16.52;;
36799;SDS011;22752;51.960;5.886;2023-08-06T06:19:18;20.83;;;17.73;;
36799;SDS011;22752;51.960;5.886;2023-08-06T06:21:43;21.52;;;17.48;;
36799;SDS011;22752;51.960;5.886;2023-08-06T06:24:09;20.25;;;18.05;;
36799;SDS011;22752;51.960;5.886;2023-08-06T06:26:35;18.92;;;16.92;;
36799;SDS011;22752;51.960;5.886;2023-08-06T06:29:00;22.45;;;17.38;;
36799;SDS011;22752;51.960;5.886;2023-08-06T06:31:26;25.45;;;20.42;;
36799;SDS011;22752;51.960;5.886;2023-08-06T06:33:51;23.75;;;20.17;;
36799;SDS011;22752;51.960;5.886;2023-08-06T06:36:19;21.13;;;18.92;;
36799;SDS011;22752;51.960;5.886;2023-08-06T06:38:45;25.23;;;19.75;;
36799;SDS011;22752;51.960;5.886;2023-08-06T06:41:11;21.27;;;18.58;;
36799;SDS011;22752;51.960;5.886;2023-08-06T06:43:36;22.55;;;19.75;;
36799;SDS011;22752;51.960;5.886;2023-08-06T06:46:04;21.50;;;18.10;;
36799;SDS011;22752;51.960;5.886;2023-08-06T06:48:31;21.85;;;19.55;;
36799;SDS011;22752;51.960;5.886;2023-08-06T06:50:58;21.20;;;18.60;;
36799;SDS011;22752;51.960;5.886;2023-08-06T06:53:24;19.17;;;17.05;;
36799;SDS011;22752;51.960;5.886;2023-08-06T06:55:53;24.52;;;19.80;;
36799;SDS011;22752;51.960;5.886;2023-08-06T06:58:19;24.45;;;20.15;;
36799;SDS011;22752;51.960;5.886;2023-08-06T07:00:46;22.10;;;18.83;;
36799;SDS011;22752;51.960;5.886;2023-08-06T07:03:13;22.33;;;19.35;;
36799;SDS011;22752;51.960;5.886;2023-08-06T07:05:39;22.90;;;19.80;;
36799;SDS011;22752;51.960;5.886;2023-08-06T07:08:04;23.90;;;18.80;;
36799;SDS011;22752;51.960;5.886;2023-08-06T07:10:30;23.55;;;20.45;;
36799;SDS011;22752;51.960;5.886;2023-08-06T07:12:56;25.33;;;22.02;;
36799;SDS011;22752;51.960;5.886;2023-08-06T07:15:21;25.35;;;19.17;;
36799;SDS011;22752;51.960;5.886;2023-08-06T07:17:47;22.20;;;18.80;;
36799;SDS011;22752;51.960;5.886;2023-08-06T07:20:13;22.02;;;18.92;;
36799;SDS011;22752;51.960;5.886;2023-08-06T07:22:38;25.92;;;21.88;;
36799;SDS011;22752;51.960;5.886;2023-08-06T07:25:04;21.92;;;19.50;;
36799;SDS011;22752;51.960;5.886;2023-08-06T07:27:30;23.15;;;20.73;;
36799;SDS011;22752;51.960;5.886;2023-08-06T07:29:55;25.15;;;20.70;;
36799;SDS011;22752;51.960;5.886;2023-08-06T07:32:21;26.60;;;20.75;;
36799;SDS011;22752;51.960;5.886;2023-08-06T07:34:46;29.67;;;23.63;;
36799;SDS011;22752;51.960;5.886;2023-08-06T07:37:12;25.58;;;20.88;;
36799;SDS011;22752;51.960;5.886;2023-08-06T07:39:38;23.52;;;19.50;;
36799;SDS011;22752;51.960;5.886;2023-08-06T07:42:04;26.88;;;21.13;;
36799;SDS011;22752;51.960;5.886;2023-08-06T07:44:32;25.98;;;19.45;;
36799;SDS011;22752;51.960;5.886;2023-08-06T07:46:57;21.45;;;18.13;;
36799;SDS011;22752;51.960;5.886;2023-08-06T07:49:23;19.33;;;16.42;;
36799;SDS011;22752;51.960;5.886;2023-08-06T07:51:49;22.98;;;18.30;;
36799;SDS011;22752;51.960;5.886;2023-08-06T07:54:16;19.90;;;17.73;;
36799;SDS011;22752;51.960;5.886;2023-08-06T07:56:42;17.83;;;15.93;;
36799;SDS011;22752;51.960;5.886;2023-08-06T07:59:08;17.58;;;15.75;;
36799;SDS011;22752;51.960;5.886;2023-08-06T08:01:34;18.45;;;16.48;;
36799;SDS011;22752;51.960;5.886;2023-08-06T08:03:59;19.02;;;15.88;;
36799;SDS011;22752;51.960;5.886;2023-08-06T08:06:25;19.73;;;17.52;;
36799;SDS011;22752;51.960;5.886;2023-08-06T08:08:51;17.13;;;15.00;;
36799;SDS011;22752;51.960;5.886;2023-08-06T08:11:17;17.52;;;15.65;;
36799;SDS011;22752;51.960;5.886;2023-08-06T08:13:43;16.60;;;14.90;;
36799;SDS011;22752;51.960;5.886;2023-08-06T08:16:09;15.55;;;13.15;;
36799;SDS011;22752;51.960;5.886;2023-08-06T08:18:35;17.02;;;14.90;;
36799;SDS011;22752;51.960;5.886;2023-08-06T08:21:01;15.32;;;13.50;;
36799;SDS011;22752;51.960;5.886;2023-08-06T08:23:26;13.80;;;12.05;;
36799;SDS011;22752;51.960;5.886;2023-08-06T08:25:52;12.90;;;11.60;;
36799;SDS011;22752;51.960;5.886;2023-08-06T08:28:18;14.38;;;12.63;;
36799;SDS011;22752;51.960;5.886;2023-08-06T08:30:44;14.00;;;12.60;;
36799;SDS011;22752;51.960;5.886;2023-08-06T08:33:09;12.73;;;11.43;;
36799;SDS011;22752;51.960;5.886;2023-08-06T08:35:36;10.98;;;9.65;;
36799;SDS011;22752;51.960;5.886;2023-08-06T08:38:01;14.15;;;11.57;;
36799;SDS011;22752;51.960;5.886;2023-08-06T08:40:29;11.98;;;10.68;;
36799;SDS011;22752;51.960;5.886;2023-08-06T08:42:57;11.98;;;10.77;;
36799;SDS011;22752;51.960;5.886;2023-08-06T08:45:24;12.73;;;10.98;;
36799;SDS011;22752;51.960;5.886;2023-08-06T08:47:53;12.48;;;10.70;;
36799;SDS011;22752;51.960;5.886;2023-08-06T08:50:19;10.30;;;9.30;;
36799;SDS011;22752;51.960;5.886;2023-08-06T08:52:46;9.63;;;8.70;;
36799;SDS011;22752;51.960;5.886;2023-08-06T08:55:14;11.02;;;9.77;;
36799;SDS011;22752;51.960;5.886;2023-08-06T08:57:40;12.35;;;10.65;;
36799;SDS011;22752;51.960;5.886;2023-08-06T09:00:06;10.95;;;9.77;;
36799;SDS011;22752;51.960;5.886;2023-08-06T09:02:32;10.45;;;9.40;;
36799;SDS011;22752;51.960;5.886;2023-08-06T09:04:59;11.45;;;10.20;;
36799;SDS011;22752;51.960;5.886;2023-08-06T09:07:27;11.13;;;9.35;;
36799;SDS011;22752;51.960;5.886;2023-08-06T09:09:57;10.80;;;9.52;;
36799;SDS011;22752;51.960;5.886;2023-08-06T09:12:24;11.95;;;9.98;;
36799;SDS011;22752;51.960;5.886;2023-08-06T09:14:51;9.85;;;8.57;;
36799;SDS011;22752;51.960;5.886;2023-08-06T09:17:17;11.30;;;9.18;;
36799;SDS011;22752;51.960;5.886;2023-08-06T09:19:44;10.98;;;9.73;;
36799;SDS011;22752;51.960;5.886;2023-08-06T09:22:13;11.15;;;8.48;;
36799;SDS011;22752;51.960;5.886;2023-08-06T09:24:42;9.55;;;8.40;;
36799;SDS011;22752;51.960;5.886;2023-08-06T09:27:12;9.60;;;8.27;;
36799;SDS011;22752;51.960;5.886;2023-08-06T09:29:45;9.95;;;8.73;;
36799;SDS011;22752;51.960;5.886;2023-08-06T09:32:14;12.68;;;8.43;;
36799;SDS011;22752;51.960;5.886;2023-08-06T09:34:41;9.35;;;7.93;;
36799;SDS011;22752;51.960;5.886;2023-08-06T09:37:08;11.27;;;8.32;;
36799;SDS011;22752;51.960;5.886;2023-08-06T09:39:35;8.35;;;7.55;;
36799;SDS011;22752;51.960;5.886;2023-08-06T09:42:01;9.32;;;7.97;;
36799;SDS011;22752;51.960;5.886;2023-08-06T09:44:28;8.32;;;7.32;;
36799;SDS011;22752;51.960;5.886;2023-08-06T09:46:55;8.20;;;7.40;;
36799;SDS011;22752;51.960;5.886;2023-08-06T09:49:25;7.93;;;7.13;;
36799;SDS011;22752;51.960;5.886;2023-08-06T09:51:52;7.35;;;6.47;;
36799;SDS011;22752;51.960;5.886;2023-08-06T09:54:21;7.30;;;6.18;;
36799;SDS011;22752;51.960;5.886;2023-08-06T09:56:48;7.20;;;6.50;;
36799;SDS011;22752;51.960;5.886;2023-08-06T09:59:14;6.95;;;6.25;;
36799;SDS011;22752;51.960;5.886;2023-08-06T10:01:41;7.03;;;6.32;;
36799;SDS011;22752;51.960;5.886;2023-08-06T10:04:06;7.05;;;6.30;;
36799;SDS011;22752;51.960;5.886;2023-08-06T10:06:37;7.00;;;6.30;;
36799;SDS011;22752;51.960;5.886;2023-08-06T10:09:03;7.63;;;5.95;;
36799;SDS011;22752;51.960;5.886;2023-08-06T10:11:29;8.18;;;7.28;;
36799;SDS011;22752;51.960;5.886;2023-08-06T10:14:10;12.00;;;9.07;;
36799;SDS011;22752;51.960;5.886;2023-08-06T10:16:38;11.40;;;8.43;;
36799;SDS011;22752;51.960;5.886;2023-08-06T10:19:06;9.90;;;8.90;;
36799;SDS011;22752;51.960;5.886;2023-08-06T10:21:34;11.60;;;10.20;;
36799;SDS011;22752;51.960;5.886;2023-08-06T10:24:00;7.05;;;5.43;;
36799;SDS011;22752;51.960;5.886;2023-08-06T10:26:28;6.43;;;4.50;;
36799;SDS011;22752;51.960;5.886;2023-08-06T10:28:55;4.03;;;3.33;;
36799;SDS011;22752;51.960;5.886;2023-08-06T10:32:07;5.63;;;3.10;;
36799;SDS011;22752;51.960;5.886;2023-08-06T10:34:20;3.83;;;2.08;;
36799;SDS011;22752;51.960;5.886;2023-08-06T10:36:46;2.50;;;1.52;;
36799;SDS011;22752;51.960;5.886;2023-08-06T10:39:15;8.05;;;1.90;;
36799;SDS011;22752;51.960;5.886;2023-08-06T10:41:42;5.15;;;1.95;;
36799;SDS011;22752;51.960;5.886;2023-08-06T10:44:11;1.58;;;1.40;;
36799;SDS011;22752;51.960;5.886;2023-08-06T10:46:37;1.98;;;1.52;;
36799;SDS011;22752;51.960;5.886;2023-08-06T10:49:03;1.95;;;1.67;;
36799;SDS011;22752;51.960;5.886;2023-08-06T10:51:29;4.63;;;1.63;;
36799;SDS011;22752;51.960;5.886;2023-08-06T10:53:55;2.75;;;1.42;;
36799;SDS011;22752;51.960;5.886;2023-08-06T10:56:23;4.20;;;2.00;;
36799;SDS011;22752;51.960;5.886;2023-08-06T10:58:55;2.75;;;1.80;;
36799;SDS011;22752;51.960;5.886;2023-08-06T11:01:22;2.97;;;1.98;;
36799;SDS011;22752;51.960;5.886;2023-08-06T11:03:49;3.30;;;2.00;;
36799;SDS011;22752;51.960;5.886;2023-08-06T11:06:18;2.70;;;2.05;;
36799;SDS011;22752;51.960;5.886;2023-08-06T11:08:49;2.50;;;2.22;;
36799;SDS011;22752;51.960;5.886;2023-08-06T11:11:17;3.38;;;2.15;;
36799;SDS011;22752;51.960;5.886;2023-08-06T11:13:43;3.00;;;1.98;;
36799;SDS011;22752;51.960;5.886;2023-08-06T11:16:14;2.15;;;1.90;;
36799;SDS011;22752;51.960;5.886;2023-08-06T11:18:44;2.42;;;2.10;;
36799;SDS011;22752;51.960;5.886;2023-08-06T11:21:10;4.82;;;2.22;;
36799;SDS011;22752;51.960;5.886;2023-08-06T11:23:40;3.80;;;2.40;;
36799;SDS011;22752;51.960;5.886;2023-08-06T11:26:06;3.53;;;2.30;;
36799;SDS011;22752;51.960;5.886;2023-08-06T11:28:32;3.40;;;3.00;;
36799;SDS011;22752;51.960;5.886;2023-08-06T11:30:58;3.55;;;3.05;;
36799;SDS011;22752;51.960;5.886;2023-08-06T11:33:27;4.45;;;2.90;;
36799;SDS011;22752;51.960;5.886;2023-08-06T11:35:56;3.70;;;2.85;;
36799;SDS011;22752;51.960;5.886;2023-08-06T11:38:27;5.57;;;3.22;;
36799;SDS011;22752;51.960;5.886;2023-08-06T11:40:53;3.42;;;3.00;;
36799;SDS011;22752;51.960;5.886;2023-08-06T11:43:20;4.35;;;3.10;;
36799;SDS011;22752;51.960;5.886;2023-08-06T11:45:47;4.35;;;2.92;;
36799;SDS011;22752;51.960;5.886;2023-08-06T11:48:18;4.30;;;3.50;;
36799;SDS011;22752;51.960;5.886;2023-08-06T11:50:44;7.72;;;3.72;;
36799;SDS011;22752;51.960;5.886;2023-08-06T11:53:12;6.57;;;4.53;;
36799;SDS011;22752;51.960;5.886;2023-08-06T11:55:39;6.43;;;4.43;;
36799;SDS011;22752;51.960;5.886;2023-08-06T11:58:05;6.10;;;4.90;;
36799;SDS011;22752;51.960;5.886;2023-08-06T12:00:31;7.43;;;4.97;;
36799;SDS011;22752;51.960;5.886;2023-08-06T12:02:57;7.13;;;5.07;;
36799;SDS011;22752;51.960;5.886;2023-08-06T12:05:23;8.75;;;4.95;;
36799;SDS011;22752;51.960;5.886;2023-08-06T12:07:59;5.75;;;4.15;;
36799;SDS011;22752;51.960;5.886;2023-08-06T12:10:26;5.72;;;3.90;;
36799;SDS011;22752;51.960;5.886;2023-08-06T12:12:54;4.30;;;3.90;;
36799;SDS011;22752;51.960;5.886;2023-08-06T12:15:19;5.60;;;4.18;;
36799;SDS011;22752;51.960;5.886;2023-08-06T12:17:45;4.93;;;3.45;;
36799;SDS011;22752;51.960;5.886;2023-08-06T12:20:11;11.35;;;4.80;;
36799;SDS011;22752;51.960;5.886;2023-08-06T12:22:37;5.50;;;3.88;;
36799;SDS011;22752;51.960;5.886;2023-08-06T12:25:05;6.63;;;4.25;;
36799;SDS011;22752;51.960;5.886;2023-08-06T12:27:36;6.38;;;4.30;;
36799;SDS011;22752;51.960;5.886;2023-08-06T12:30:07;7.90;;;4.68;;
36799;SDS011;22752;51.960;5.886;2023-08-06T12:32:33;5.30;;;4.25;;
36799;SDS011;22752;51.960;5.886;2023-08-06T12:34:59;7.45;;;4.70;;
36799;SDS011;22752;51.960;5.886;2023-08-06T12:37:26;9.93;;;4.85;;
36799;SDS011;22752;51.960;5.886;2023-08-06T12:39:52;9.80;;;5.28;;
36799;SDS011;22752;51.960;5.886;2023-08-06T12:42:18;11.27;;;5.10;;
36799;SDS011;22752;51.960;5.886;2023-08-06T12:44:43;6.32;;;4.47;;
36799;SDS011;22752;51.960;5.886;2023-08-06T12:47:09;7.07;;;4.50;;
36799;SDS011;22752;51.960;5.886;2023-08-06T12:49:35;6.90;;;4.00;;
36799;SDS011;22752;51.960;5.886;2023-08-06T12:52:01;7.15;;;4.68;;
36799;SDS011;22752;51.960;5.886;2023-08-06T12:54:27;11.43;;;4.53;;
36799;SDS011;22752;51.960;5.886;2023-08-06T12:56:53;13.18;;;5.50;;
36799;SDS011;22752;51.960;5.886;2023-08-06T12:59:19;5.88;;;4.43;;
36799;SDS011;22752;51.960;5.886;2023-08-06T13:01:45;10.30;;;5.13;;
36799;SDS011;22752;51.960;5.886;2023-08-06T13:04:11;6.88;;;4.43;;
36799;SDS011;22752;51.960;5.886;2023-08-06T13:06:37;9.38;;;4.53;;
36799;SDS011;22752;51.960;5.886;2023-08-06T13:09:04;9.93;;;4.28;;
36799;SDS011;22752;51.960;5.886;2023-08-06T13:14:13;8.05;;;4.40;;
36799;SDS011;22752;51.960;5.886;2023-08-06T13:16:39;16.08;;;5.30;;
36799;SDS011;22752;51.960;5.886;2023-08-06T13:19:07;11.98;;;4.55;;
36799;SDS011;22752;51.960;5.886;2023-08-06T13:21:33;10.73;;;4.50;;
36799;SDS011;22752;51.960;5.886;2023-08-06T13:24:01;9.20;;;4.22;;
36799;SDS011;22752;51.960;5.886;2023-08-06T13:26:30;9.23;;;4.75;;
36799;SDS011;22752;51.960;5.886;2023-08-06T13:28:56;7.93;;;4.72;;
36799;SDS011;22752;51.960;5.886;2023-08-06T13:31:23;5.20;;;4.07;;
36799;SDS011;22752;51.960;5.886;2023-08-06T13:33:49;10.65;;;4.97;;
36799;SDS011;22752;51.960;5.886;2023-08-06T13:36:15;8.15;;;5.00;;
36799;SDS011;22752;51.960;5.886;2023-08-06T13:38:42;8.30;;;4.38;;
36799;SDS011;22752;51.960;5.886;2023-08-06T13:41:07;7.10;;;4.45;;
36799;SDS011;22752;51.960;5.886;2023-08-06T13:43:33;8.85;;;5.30;;
36799;SDS011;22752;51.960;5.886;2023-08-06T13:45:58;11.73;;;4.93;;
36799;SDS011;22752;51.960;5.886;2023-08-06T13:48:24;9.38;;;4.75;;
36799;SDS011;22752;51.960;5.886;2023-08-06T13:50:50;8.35;;;4.55;;
36799;SDS011;22752;51.960;5.886;2023-08-06T13:53:15;7.13;;;4.50;;
36799;SDS011;22752;51.960;5.886;2023-08-06T13:55:41;8.25;;;4.20;;
36799;SDS011;22752;51.960;5.886;2023-08-06T13:58:07;10.32;;;5.00;;
36799;SDS011;22752;51.960;5.886;2023-08-06T14:00:33;6.80;;;3.88;;
36799;SDS011;22752;51.960;5.886;2023-08-06T14:03:00;7.82;;;4.55;;
36799;SDS011;22752;51.960;5.886;2023-08-06T14:05:26;7.38;;;3.70;;
36799;SDS011;22752;51.960;5.886;2023-08-06T14:07:52;6.53;;;3.60;;
36799;SDS011;22752;51.960;5.886;2023-08-06T14:10:17;9.68;;;3.53;;
36799;SDS011;22752;51.960;5.886;2023-08-06T14:12:43;6.30;;;4.13;;
36799;SDS011;22752;51.960;5.886;2023-08-06T14:15:09;8.40;;;4.60;;
36799;SDS011;22752;51.960;5.886;2023-08-06T14:17:35;7.03;;;4.38;;
36799;SDS011;22752;51.960;5.886;2023-08-06T14:20:01;4.75;;;3.53;;
36799;SDS011;22752;51.960;5.886;2023-08-06T14:22:29;5.72;;;3.55;;
36799;SDS011;22752;51.960;5.886;2023-08-06T14:24:56;5.05;;;4.00;;
36799;SDS011;22752;51.960;5.886;2023-08-06T14:27:25;7.80;;;4.85;;
36799;SDS011;22752;51.960;5.886;2023-08-06T14:29:50;13.60;;;4.97;;
36799;SDS011;22752;51.960;5.886;2023-08-06T14:32:16;9.25;;;4.70;;